createdAt,value
2022-12-29T02:03:33.668Z,11.86
2022-12-29T02:06:06.979Z,11.89
2022-12-29T02:08:33.950Z,12.08
2022-12-29T02:11:01.896Z,12.20
2022-12-29T02:13:29.051Z,12.06
2022-12-29T02:16:29.823Z,12.12
2022-12-29T02:19:05.355Z,12.09
2022-12-29T02:21:57.120Z,12.01
2022-12-29T02:24:29.939Z,12.10
2022-12-29T02:27:18.741Z,12.16
2022-12-29T02:30:05.703Z,12.21
2022-12-29T02:32:44.843Z,12.15
2022-12-29T02:35:48.569Z,12.20
2022-12-29T02:38:39.513Z,12.12
2022-12-29T02:41:17.823Z,12.12
2022-12-29T02:43:53.833Z,12.32
2022-12-29T02:46:29.048Z,12.15
2022-12-29T02:48:58.841Z,12.06
2022-12-29T02:51:31.978Z,12.10
2022-12-29T02:54:19.067Z,12.09
2022-12-29T02:56:45.572Z,12.20
2022-12-29T02:59:13.498Z,12.26
2022-12-29T03:02:06.999Z,12.06
2022-12-29T03:04:52.189Z,11.98
2022-12-29T03:07:25.472Z,12.03
2022-12-29T03:10:05.737Z,12.02
2022-12-29T03:13:01.105Z,12.04
2022-12-29T03:15:56.618Z,12.17
2022-12-29T03:18:28.856Z,12.21
2022-12-29T03:21:01.517Z,12.22
2022-12-29T03:23:28.911Z,12.09
2022-12-29T03:25:59.529Z,12.22
2022-12-29T03:28:32.138Z,12.21
2022-12-29T03:31:00.355Z,12.26
2022-12-29T03:33:30.620Z,12.19
2022-12-29T03:36:01.067Z,12.24
2022-12-29T03:38:49.563Z,12.08
2022-12-29T03:41:22.610Z,12.12
2022-12-29T03:43:49.116Z,12.18
2022-12-29T03:46:15.703Z,12.17
2022-12-29T03:48:42.442Z,12.27
2022-12-29T03:51:08.983Z,12.27
2022-12-29T03:53:35.693Z,12.23
2022-12-29T03:56:02.472Z,12.24
2022-12-29T03:58:29.020Z,12.24
2022-12-29T04:00:55.585Z,12.27
2022-12-29T04:03:22.253Z,12.39
2022-12-29T04:05:48.919Z,12.34
2022-12-29T04:08:15.492Z,12.51
2022-12-29T04:10:42.168Z,12.26
2022-12-29T04:13:08.700Z,12.31
2022-12-29T04:15:35.638Z,12.39
2022-12-29T04:18:02.362Z,12.42
2022-12-29T04:20:47.495Z,12.36
2022-12-29T04:23:14.079Z,12.42
2022-12-29T04:25:40.984Z,12.40
2022-12-29T04:28:08.934Z,12.39
2022-12-29T04:30:35.765Z,12.37
2022-12-29T04:33:02.323Z,12.58
2022-12-29T04:35:28.871Z,12.54
2022-12-29T04:37:55.537Z,12.56
2022-12-29T04:40:22.215Z,12.58
2022-12-29T04:42:48.894Z,12.69
2022-12-29T04:45:15.622Z,12.63
2022-12-29T04:47:42.110Z,12.74
2022-12-29T04:50:09.181Z,12.55
2022-12-29T04:52:36.278Z,12.72
2022-12-29T04:55:02.890Z,12.53
2022-12-29T04:57:29.478Z,12.43
2022-12-29T04:59:56.137Z,12.38
2022-12-29T05:02:22.853Z,12.46
2022-12-29T05:04:49.425Z,12.54
2022-12-29T05:07:16.576Z,12.54
2022-12-29T05:09:43.173Z,12.55
2022-12-29T05:12:09.679Z,12.42
2022-12-29T05:14:36.249Z,12.47
2022-12-29T05:17:02.794Z,12.49
2022-12-29T05:19:29.398Z,12.48
2022-12-29T05:21:56.058Z,12.48
2022-12-29T05:24:22.592Z,12.52
2022-12-29T05:26:49.134Z,12.41
2022-12-29T05:29:15.870Z,12.52
2022-12-29T05:31:44.784Z,12.65
2022-12-29T05:34:12.560Z,12.60
2022-12-29T05:36:40.099Z,12.50
2022-12-29T05:39:08.709Z,12.57
2022-12-29T05:41:35.634Z,12.57
2022-12-29T05:44:02.244Z,12.48
2022-12-29T05:46:29.106Z,12.47
2022-12-29T05:48:55.821Z,12.52
2022-12-29T05:51:22.445Z,12.56
2022-12-29T05:53:48.963Z,12.51
2022-12-29T05:56:15.473Z,12.43
2022-12-29T05:58:42.217Z,12.57
2022-12-29T06:01:09.093Z,12.46
2022-12-29T06:03:35.682Z,12.43
2022-12-29T06:06:02.416Z,12.45
2022-12-29T06:08:29.209Z,12.50
2022-12-29T06:10:55.776Z,12.53
2022-12-29T06:13:22.732Z,12.59
2022-12-29T06:15:50.141Z,12.55
2022-12-29T06:18:20.082Z,12.50
2022-12-29T06:20:47.224Z,12.58
2022-12-29T06:23:14.281Z,12.47
2022-12-29T06:25:41.231Z,12.59
2022-12-29T06:28:08.040Z,12.37
2022-12-29T06:30:34.559Z,12.51
2022-12-29T06:33:01.080Z,12.42
2022-12-29T06:35:27.783Z,12.40
2022-12-29T06:37:54.388Z,12.45
2022-12-29T06:40:20.881Z,12.52
2022-12-29T06:42:47.467Z,12.49
2022-12-29T06:45:14.126Z,12.51
2022-12-29T06:47:40.722Z,12.77
2022-12-29T06:50:07.661Z,12.67
2022-12-29T06:52:34.193Z,12.68
2022-12-29T06:55:00.740Z,12.66
2022-12-29T06:57:27.686Z,12.65
2022-12-29T06:59:56.730Z,12.82
2022-12-29T07:02:26.259Z,12.74
2022-12-29T07:04:53.543Z,12.70
2022-12-29T07:07:21.095Z,12.84
2022-12-29T07:09:48.215Z,12.77
2022-12-29T07:12:14.877Z,12.60
2022-12-29T07:14:43.520Z,12.58
2022-12-29T07:17:10.443Z,12.68
2022-12-29T07:19:37.070Z,12.71
2022-12-29T07:22:03.671Z,12.74
2022-12-29T07:24:30.871Z,12.78
2022-12-29T07:26:57.696Z,12.73
2022-12-29T07:29:24.416Z,12.75
2022-12-29T07:31:51.069Z,12.67
2022-12-29T07:34:17.681Z,12.72
2022-12-29T07:36:44.208Z,12.67
2022-12-29T07:39:10.715Z,12.81
2022-12-29T07:41:37.281Z,12.81
2022-12-29T07:44:04.048Z,12.85
2022-12-29T07:46:56.727Z,12.78
2022-12-29T07:49:17.240Z,12.90
2022-12-29T07:51:43.797Z,12.83
2022-12-29T07:54:10.480Z,12.75
2022-12-29T07:56:37.122Z,12.92
2022-12-29T07:59:03.632Z,12.67
2022-12-29T08:01:30.335Z,12.81
2022-12-29T08:03:57.649Z,12.70
2022-12-29T08:06:24.639Z,12.70
2022-12-29T08:08:51.201Z,12.85
2022-12-29T08:11:18.095Z,12.79
2022-12-29T08:13:44.598Z,12.98
2022-12-29T08:16:11.195Z,12.99
2022-12-29T08:18:37.800Z,13.16
2022-12-29T08:21:05.361Z,13.05
2022-12-29T08:23:32.371Z,13.24
2022-12-29T08:26:00.665Z,13.16
2022-12-29T08:28:27.595Z,13.12
2022-12-29T08:30:54.525Z,13.29
2022-12-29T08:33:21.122Z,13.42
2022-12-29T08:35:47.670Z,13.49
2022-12-29T08:38:14.384Z,13.51
2022-12-29T08:40:40.967Z,13.55
2022-12-29T08:43:08.771Z,13.68
2022-12-29T08:45:35.633Z,13.55
2022-12-29T08:48:02.223Z,13.35
2022-12-29T08:50:28.731Z,13.45
2022-12-29T08:52:55.278Z,13.73
2022-12-29T08:55:21.934Z,13.75
2022-12-29T08:57:48.500Z,13.85
2022-12-29T09:00:16.100Z,13.80
2022-12-29T09:02:42.777Z,13.98
2022-12-29T09:05:10.729Z,13.81
2022-12-29T09:07:37.393Z,13.90
2022-12-29T09:10:04.478Z,13.82
2022-12-29T09:12:36.146Z,14.05
2022-12-29T09:15:04.272Z,14.15
2022-12-29T09:17:46.494Z,14.22
2022-12-29T09:20:15.058Z,14.18
2022-12-29T09:22:42.092Z,14.09
2022-12-29T09:25:10.181Z,14.24
2022-12-29T09:27:37.226Z,14.13
2022-12-29T09:30:05.639Z,14.15
2022-12-29T09:32:33.952Z,14.22
2022-12-29T09:35:01.563Z,14.25
2022-12-29T09:37:28.629Z,14.34
2022-12-29T09:39:55.186Z,14.54
2022-12-29T09:42:46.772Z,14.60
2022-12-29T09:45:22.601Z,14.60
2022-12-29T09:47:49.392Z,14.61
2022-12-29T09:50:38.154Z,14.43
2022-12-29T09:53:21.430Z,14.56
2022-12-29T09:55:54.130Z,14.54
2022-12-29T09:58:42.819Z,14.64
2022-12-29T10:01:27.327Z,14.87
2022-12-29T10:03:57.230Z,14.93
2022-12-29T10:06:34.078Z,14.93
2022-12-29T10:09:10.683Z,14.96
2022-12-29T10:11:58.809Z,14.93
2022-12-29T10:14:43.772Z,14.75
2022-12-29T10:17:34.460Z,14.84
2022-12-29T10:20:16.229Z,14.89
2022-12-29T10:23:11.616Z,14.96
2022-12-29T10:25:43.117Z,14.97
2022-12-29T10:28:44.069Z,15.44
2022-12-29T10:31:18.049Z,15.27
2022-12-29T10:33:44.747Z,15.03
2022-12-29T10:36:39.132Z,15.15
2022-12-29T10:39:16.635Z,15.18
2022-12-29T10:41:52.270Z,15.29
2022-12-29T10:44:20.903Z,15.28
2022-12-29T10:46:56.819Z,15.25
2022-12-29T10:49:27.469Z,15.26
2022-12-29T10:51:57.372Z,15.28
2022-12-29T10:54:50.057Z,15.25
2022-12-29T10:57:25.511Z,15.23
2022-12-29T10:59:52.015Z,15.17
2022-12-29T11:02:24.732Z,15.19
2022-12-29T11:05:13.062Z,15.21
2022-12-29T11:07:40.341Z,15.33
2022-12-29T11:10:31.964Z,15.38
2022-12-29T11:13:12.144Z,15.36
2022-12-29T11:15:44.053Z,15.37
2022-12-29T11:18:39.557Z,15.40
2022-12-29T11:21:34.422Z,15.80
2022-12-29T11:24:04.202Z,15.81
2022-12-29T11:26:34.719Z,15.74
2022-12-29T11:29:16.855Z,15.63
2022-12-29T11:32:09.359Z,15.55
2022-12-29T11:34:36.868Z,15.59
2022-12-29T11:37:07.373Z,15.49
2022-12-29T11:39:40.223Z,15.52
2022-12-29T11:42:12.367Z,15.67
2022-12-29T11:44:44.433Z,15.84
2022-12-29T11:47:21.023Z,15.61
2022-12-29T11:49:52.237Z,15.76
2022-12-29T11:52:23.997Z,15.84
2022-12-29T11:54:51.535Z,15.81
2022-12-29T11:57:19.478Z,15.66
2022-12-29T11:59:56.138Z,15.60
2022-12-29T12:02:43.716Z,15.50
2022-12-29T12:05:10.907Z,15.67
2022-12-29T12:07:42.048Z,15.78
2022-12-29T12:10:24.611Z,15.83
2022-12-29T12:13:06.839Z,15.94
2022-12-29T12:15:46.633Z,16.01
2022-12-29T12:18:24.571Z,16.18
2022-12-29T12:20:57.951Z,16.04
2022-12-29T12:23:27.446Z,16.10
2022-12-29T12:26:22.883Z,16.14
2022-12-29T12:29:02.012Z,16.23
2022-12-29T12:31:48.091Z,16.10
2022-12-29T12:34:25.631Z,15.90
2022-12-29T12:36:52.246Z,15.94
2022-12-29T12:40:04.303Z,16.08
2022-12-29T12:42:30.870Z,15.96
2022-12-29T12:45:18.609Z,15.78
2022-12-29T12:47:51.157Z,15.93
2022-12-29T12:50:46.251Z,16.05
2022-12-29T12:53:49.612Z,15.93
2022-12-29T12:56:42.758Z,16.03
2022-12-29T12:59:18.522Z,15.93
2022-12-29T13:02:13.128Z,16.09
2022-12-29T13:05:01.435Z,15.94
2022-12-29T13:07:30.726Z,16.02
2022-12-29T13:10:19.403Z,15.80
2022-12-29T13:13:11.113Z,16.20
2022-12-29T13:16:07.354Z,15.94
2022-12-29T13:18:49.638Z,15.93
2022-12-29T13:22:06.753Z,16.07
2022-12-29T13:24:51.895Z,16.03
2022-12-29T13:27:37.901Z,15.92
2022-12-29T13:30:16.600Z,15.99
2022-12-29T13:33:04.150Z,15.86
2022-12-29T17:39:19.454Z,12.16
2022-12-29T17:41:46.722Z,12.48
2022-12-29T17:44:21.120Z,12.33
2022-12-29T17:46:49.129Z,12.33
2022-12-29T17:49:18.262Z,12.38
2022-12-29T17:51:46.490Z,12.39
2022-12-29T17:54:20.520Z,12.38
2022-12-29T17:56:47.102Z,12.34
2022-12-29T17:59:14.289Z,12.44
2022-12-29T18:01:45.969Z,12.35
2022-12-29T18:04:18.397Z,12.59
2022-12-29T18:06:46.186Z,12.57
2022-12-29T18:09:13.961Z,12.54
2022-12-29T18:11:42.960Z,12.51
2022-12-29T18:14:14.567Z,12.36
2022-12-29T18:16:41.351Z,12.26
2022-12-29T18:19:09.265Z,12.27
2022-12-29T18:21:37.019Z,12.21
2022-12-29T18:24:03.695Z,12.18
2022-12-29T18:26:35.732Z,12.28
2022-12-29T18:29:02.391Z,12.33
2022-12-29T18:31:31.908Z,12.33
2022-12-29T18:34:01.591Z,12.27
2022-12-29T18:36:29.163Z,12.29
2022-12-29T18:38:55.794Z,12.45
2022-12-29T18:41:29.898Z,12.39
2022-12-29T18:43:57.809Z,12.19
2022-12-29T18:46:24.763Z,12.10
2022-12-29T18:48:52.767Z,12.01
2022-12-29T18:51:23.112Z,12.25
2022-12-29T18:53:52.364Z,12.18
2022-12-29T18:56:18.881Z,12.26
2022-12-29T18:58:45.453Z,12.42
2022-12-29T19:01:24.933Z,12.39
2022-12-29T19:03:52.114Z,12.53
2022-12-29T19:06:19.535Z,12.57
2022-12-29T19:08:46.091Z,12.54
2022-12-29T19:11:12.817Z,12.77
2022-12-29T19:13:40.443Z,12.24
2022-12-29T19:16:08.863Z,12.17
2022-12-29T19:18:44.541Z,12.29
2022-12-29T19:21:13.789Z,12.40
2022-12-29T19:23:40.398Z,12.33
2022-12-29T19:26:07.036Z,12.34
2022-12-29T19:28:33.561Z,12.11
2022-12-29T19:31:02.130Z,11.95
2022-12-29T19:33:29.414Z,11.94
2022-12-29T19:36:03.088Z,11.86
2022-12-29T19:38:29.997Z,11.69
2022-12-29T19:40:56.758Z,11.98
2022-12-29T19:43:23.577Z,12.11
2022-12-29T19:45:51.456Z,12.01
2022-12-29T19:48:20.367Z,12.10
2022-12-29T19:50:47.583Z,12.13
2022-12-29T19:53:14.980Z,12.03
2022-12-29T19:55:45.520Z,11.96
2022-12-29T19:58:12.696Z,12.01
2022-12-29T20:00:43.597Z,11.96
2022-12-29T20:03:10.810Z,12.02
2022-12-29T20:05:39.183Z,12.10
2022-12-29T20:08:05.781Z,12.32
2022-12-29T20:10:32.336Z,12.32
2022-12-29T20:12:58.970Z,12.34
2022-12-29T20:15:25.624Z,12.21
2022-12-29T20:20:38.765Z,12.18
2022-12-29T20:23:06.160Z,12.19
2022-12-29T20:25:48.660Z,12.13
2022-12-29T20:28:16.019Z,12.25
2022-12-29T20:30:42.913Z,12.21
2022-12-29T20:33:09.484Z,12.09
2022-12-29T20:35:36.660Z,12.13
2022-12-29T20:38:03.895Z,12.13
2022-12-29T20:40:30.544Z,12.07
2022-12-29T20:42:57.117Z,12.27
2022-12-29T20:45:24.116Z,12.23
2022-12-29T20:47:50.714Z,12.24
2022-12-29T20:50:17.400Z,12.15
2022-12-29T20:52:44.029Z,12.18
2022-12-29T20:55:10.663Z,12.19
2022-12-29T20:58:05.561Z,12.13
2022-12-29T21:00:24.124Z,12.20
2022-12-29T21:02:52.558Z,12.24
2022-12-29T21:05:24.155Z,12.17
2022-12-29T21:07:51.819Z,12.56
2022-12-29T21:10:18.574Z,12.36
2022-12-29T21:12:45.215Z,12.17
2022-12-29T21:15:14.368Z,12.37
2022-12-29T21:17:42.180Z,12.09
2022-12-29T21:20:09.601Z,12.13
2022-12-29T21:22:36.255Z,11.92
2022-12-29T21:25:02.802Z,11.97
2022-12-29T21:27:29.344Z,12.37
2022-12-29T21:29:58.047Z,12.04
2022-12-29T21:32:24.603Z,11.93
2022-12-29T21:34:51.106Z,11.86
2022-12-29T21:37:23.451Z,11.92
2022-12-29T21:39:50.410Z,12.05
2022-12-29T21:42:16.932Z,11.91
2022-12-29T21:45:02.239Z,11.93
2022-12-29T21:47:48.795Z,12.12
2022-12-29T21:50:15.494Z,12.01
2022-12-29T21:52:41.991Z,12.14
2022-12-29T21:55:09.066Z,12.08
2022-12-29T21:57:55.797Z,12.03
2022-12-29T22:00:40.737Z,12.01
2022-12-29T22:03:25.895Z,12.15
2022-12-29T22:06:11.577Z,12.04
2022-12-29T22:08:57.559Z,12.03
2022-12-29T22:11:42.864Z,11.88
2022-12-29T22:14:09.735Z,11.74
2022-12-29T22:16:36.468Z,11.78
2022-12-29T22:19:03.601Z,11.77
2022-12-29T22:21:30.429Z,12.04
2022-12-29T22:23:56.966Z,12.11
2022-12-29T22:26:23.563Z,11.90
2022-12-29T22:28:52.059Z,12.02
2022-12-29T22:31:27.979Z,11.85
2022-12-29T22:33:56.542Z,11.78
2022-12-29T22:36:24.169Z,11.96
2022-12-29T22:38:50.907Z,11.64
2022-12-29T22:41:17.657Z,11.60
2022-12-29T22:43:44.601Z,11.48
2022-12-29T22:46:11.637Z,11.55
2022-12-29T22:48:38.623Z,11.48
2022-12-29T22:51:05.964Z,11.50
2022-12-29T22:53:32.643Z,11.32
2022-12-29T22:56:03.506Z,11.42
2022-12-29T22:58:30.030Z,11.40
2022-12-29T23:00:56.639Z,11.38
2022-12-29T23:03:23.452Z,11.49
2022-12-29T23:06:01.450Z,11.66
2022-12-29T23:08:30.970Z,11.62
2022-12-29T23:10:57.601Z,11.88
2022-12-29T23:13:24.183Z,12.02
2022-12-29T23:15:50.846Z,12.10
2022-12-29T23:18:17.936Z,11.94
2022-12-29T23:20:45.111Z,11.91
2022-12-29T23:23:11.707Z,11.92
2022-12-29T23:25:39.284Z,11.91
2022-12-29T23:28:08.706Z,11.88
2022-12-29T23:30:35.435Z,11.85
2022-12-29T23:33:01.956Z,11.79
2022-12-29T23:35:28.484Z,11.88
2022-12-29T23:37:55.072Z,11.86
2022-12-29T23:40:21.609Z,11.92
2022-12-29T23:42:48.167Z,12.07
2022-12-29T23:45:14.916Z,11.96
2022-12-29T23:47:41.471Z,11.97
2022-12-29T23:50:08.880Z,12.03
2022-12-29T23:52:35.481Z,12.02
2022-12-29T23:55:02.352Z,11.89
2022-12-29T23:57:28.889Z,11.52
2022-12-29T23:59:55.499Z,11.60
